Time;durP1;ratioP1;P1;durP2;ratioP2;P2;SDS_P1;SDS_P2;PMS_P1;PMS_P2;Temp;Humidity;BMP_temperature;BMP_pressure;BME280_temperature;BME280_humidity;BME280_pressure;Samples;Min_cycle;Max_cycle;Signal;HPM_P1;HPM_P2
2021/12/15 00:00:33;;;;;;;30.75;12.90;;;-1.70;99.90;;;;;;5109166;28;20860;-77
2021/12/15 00:02:58;;;;;;;31.85;14.93;;;-1.70;99.90;;;;;;5090467;28;20027;-77
2021/12/15 00:05:25;;;;;;;;;;;-1.70;99.90;;;;;;5109685;28;20050;-77
2021/12/15 00:07:55;;;;;;;53.28;20.75;;;-1.70;99.90;;;;;;5090019;28;20391;-77
2021/12/15 00:10:23;;;;;;;69.63;31.90;;;-1.70;99.90;;;;;;5090710;28;20522;-77
2021/12/15 00:12:48;;;;;;;51.80;26.58;;;-1.70;99.90;;;;;;5108906;28;20032;-77
2021/12/15 00:15:14;;;;;;;;;;;-1.70;99.90;;;;;;5109090;28;20051;-78
2021/12/15 00:17:40;;;;;;;36.47;15.50;;;-1.70;99.90;;;;;;5090292;28;19908;-78
2021/12/15 00:20:08;;;;;;;;;;;-1.70;99.90;;;;;;5090646;28;20028;-78
2021/12/15 00:22:35;;;;;;;39.22;16.15;;;-1.70;99.90;;;;;;5090661;28;20479;-77
2021/12/15 00:25:02;;;;;;;38.03;16.00;;;-1.70;99.90;;;;;;5090238;28;20031;-77
2021/12/15 00:27:28;;;;;;;26.00;14.63;;;-1.70;99.90;;;;;;5090443;28;20142;-77
2021/12/15 00:29:54;;;;;;;;;;;-1.60;99.90;;;;;;5108587;28;20118;-78
2021/12/15 00:32:19;;;;;;;19.05;10.45;;;-1.60;99.90;;;;;;5090291;28;20450;-78
2021/12/15 00:34:45;;;;;;;;;;;-1.70;99.90;;;;;;5090905;28;20036;-77
2021/12/15 00:37:11;;;;;;;21.00;8.40;;;-1.60;99.90;;;;;;5090398;28;19907;-77
2021/12/15 00:39:37;;;;;;;;;;;-1.60;99.90;;;;;;5090711;28;20028;-78
2021/12/15 00:42:04;;;;;;;18.20;7.57;;;-1.70;99.90;;;;;;5090735;28;20005;-78
2021/12/15 00:44:30;;;;;;;16.88;8.82;;;-1.70;99.90;;;;;;5090392;28;20046;-78
2021/12/15 00:46:55;;;;;;;;;;;-1.70;99.90;;;;;;5108825;28;20242;-78
2021/12/15 00:49:23;;;;;;;19.77;7.57;;;-1.60;99.90;;;;;;5090243;28;19907;-77
2021/12/15 00:51:50;;;;;;;16.48;7.18;;;-1.70;99.90;;;;;;5089912;28;20023;-77
2021/12/15 00:54:16;;;;;;;20.50;8.95;;;-1.70;99.90;;;;;;5109218;28;20038;-78
2021/12/15 00:56:42;;;;;;;15.98;7.57;;;-1.70;99.90;;;;;;5090889;28;20404;-78
2021/12/15 00:59:09;;;;;;;11.68;5.93;;;-1.70;99.90;;;;;;5090007;28;20751;-78
2021/12/15 01:01:36;;;;;;;14.57;6.53;;;-1.80;99.90;;;;;;5089340;28;20047;-78
2021/12/15 01:04:04;;;;;;;14.63;6.45;;;-1.80;99.90;;;;;;5107788;28;20092;-77
2021/12/15 01:06:30;;;;;;;18.23;8.43;;;-1.90;99.90;;;;;;5089637;28;20027;-78
2021/12/15 01:08:58;;;;;;;;;;;-1.90;99.90;;;;;;5089426;28;20046;-78
2021/12/15 01:11:54;;;;;;;19.45;8.15;;;-1.80;99.90;;;;;;5107810;28;20005;-77
2021/12/15 01:19:47;;;;;;;14.15;6.35;;;-1.60;99.90;;;;;;5089337;28;20512;-78
2021/12/15 01:20:10;;;;;;;15.32;6.50;;;-1.60;99.90;;;;;;5107903;28;20043;-78
2021/12/15 01:22:44;;;;;;;20.05;8.35;;;-1.60;99.90;;;;;;5089003;28;20385;-78
2021/12/15 01:25:31;;;;;;;16.27;7.50;;;-1.70;99.90;;;;;;5107599;28;20026;-78
2021/12/15 01:27:57;;;;;;;15.82;6.63;;;-1.70;99.90;;;;;;5089179;28;20024;-78
2021/12/15 01:30:29;;;;;;;16.42;4.97;;;-1.60;99.90;;;;;;5107356;28;20041;-77
2021/12/15 01:32:57;;;;;;;12.52;5.57;;;-1.70;99.90;;;;;;5107045;28;20031;-77
2021/12/15 01:35:24;;;;;;;12.70;5.63;;;-1.70;99.90;;;;;;5088972;28;20039;-77
2021/12/15 01:37:50;;;;;;;14.35;6.05;;;-1.70;99.90;;;;;;5089419;28;20080;-77
2021/12/15 01:40:29;;;;;;;33.03;11.57;;;-1.70;99.90;;;;;;5089262;28;20027;-77
2021/12/15 01:42:55;;;;;;;27.10;9.63;;;-1.80;99.90;;;;;;5089479;28;20027;-78
2021/12/15 01:48:11;;;;;;;31.42;10.30;;;-1.80;99.90;;;;;;5106921;28;19953;-78
2021/12/15 01:50:38;;;;;;;34.72;11.30;;;-1.80;99.90;;;;;;5088815;28;20404;-78
2021/12/15 01:53:05;;;;;;;45.22;14.77;;;-1.80;99.90;;;;;;5089095;28;20475;-78
2021/12/15 01:55:31;;;;;;;37.40;13.38;;;-1.70;99.90;;;;;;5107643;28;20047;-77
2021/12/15 01:57:57;;;;;;;;;;;-1.80;99.90;;;;;;5089465;28;20020;-77
2021/12/15 02:00:40;;;;;;;50.72;18.63;;;-1.80;99.90;;;;;;5088798;28;19914;-77
2021/12/15 02:03:06;;;;;;;59.10;20.27;;;-1.80;99.90;;;;;;5088761;28;20039;-77
2021/12/15 02:05:32;;;;;;;;;;;-1.80;99.90;;;;;;5089404;28;20028;-78
2021/12/15 02:08:01;;;;;;;63.97;19.13;;;-1.80;99.90;;;;;;5106896;28;20398;-77
2021/12/15 02:10:30;;;;;;;51.60;17.92;;;-1.80;99.90;;;;;;5107571;28;20511;-78
2021/12/15 02:13:01;;;;;;;53.63;17.02;;;-1.90;99.90;;;;;;5106812;28;20099;-77
2021/12/15 02:15:30;;;;;;;37.55;12.93;;;-1.90;99.90;;;;;;5088981;28;20036;-77
2021/12/15 02:17:56;;;;;;;35.28;11.95;;;-1.80;99.90;;;;;;5106778;28;20056;-78
2021/12/15 02:20:30;;;;;;;16.33;5.95;;;-1.80;99.90;;;;;;5089150;28;20038;-78
2021/12/15 02:22:56;;;;;;;17.88;5.97;;;-1.80;99.90;;;;;;5094212;28;20031;-77
2021/12/15 02:25:22;;;;;;;;;;;-1.80;99.90;;;;;;5111241;28;20100;-77
2021/12/15 02:27:48;;;;;;;23.60;8.43;;;-1.80;99.90;;;;;;5110990;28;19915;-77
2021/12/15 02:31:07;;;;;;;;;;;-1.90;99.90;;;;;;5092948;28;20264;-77
2021/12/15 02:38:39;;;;;;;12.77;4.95;;;-2.00;99.90;;;;;;5111058;28;20026;-78
2021/12/15 02:41:19;;;;;;;20.90;8.40;;;-2.00;99.90;;;;;;5092197;28;20488;-78
2021/12/15 02:43:46;;;;;;;16.10;6.10;;;-2.00;99.90;;;;;;5110534;28;20126;-78
2021/12/15 02:46:11;;;;;;;13.25;5.22;;;-2.00;99.90;;;;;;5091978;28;20415;-77
2021/12/15 02:48:37;;;;;;;;;;;-1.90;99.90;;;;;;5092848;28;20584;-78
2021/12/15 02:51:02;;;;;;;3.97;1.83;;;-1.80;99.90;;;;;;5109886;28;20432;-78
2021/12/15 02:53:28;;;;;;;;;;;-1.90;99.90;;;;;;5092828;28;20081;-77
2021/12/15 02:55:54;;;;;;;6.63;2.65;;;-1.80;99.90;;;;;;5110505;28;19915;-77
2021/12/15 02:58:21;;;;;;;;;;;-1.80;99.90;;;;;;5110613;28;20055;-78
2021/12/15 03:01:17;;;;;;;8.48;2.58;;;-1.90;99.90;;;;;;5109975;28;19915;-78
2021/12/15 03:06:30;;;;;;;10.35;3.97;;;-1.90;99.90;;;;;;5078194;28;20476;-78
2021/12/15 03:17:03;;;;;;;13.63;4.40;;;-2.00;99.90;;;;;;5109787;28;20788;-78
2021/12/15 03:19:28;;;;;;;10.90;4.35;;;-2.00;99.90;;;;;;5091739;28;20080;-77
2021/12/15 03:21:54;;;;;;;;;;;-2.00;99.90;;;;;;5091787;28;20028;-77
2021/12/15 03:24:23;;;;;;;10.95;4.70;;;-1.90;99.90;;;;;;5091702;28;20439;-77
2021/12/15 03:26:59;;;;;;;10.98;4.53;;;-2.00;99.90;;;;;;5110230;28;20156;-78
2021/12/15 03:37:28;;;;;;;5.93;3.20;;;-1.70;99.90;;;;;;5109417;28;20080;-77
2021/12/15 03:40:08;;;;;;;9.45;3.55;;;-1.70;99.90;;;;;;5109799;28;20020;-78
2021/12/15 03:42:41;;;;;;;9.05;2.45;;;-1.60;99.90;;;;;;5109980;28;20034;-77
2021/12/15 03:45:12;;;;;;;6.70;2.42;;;-1.50;99.90;;;;;;5093462;28;20012;-78
2021/12/15 03:47:42;;;;;;;6.47;2.63;;;-1.30;99.90;;;;;;5091544;28;20604;-78
2021/12/15 03:50:10;;;;;;;7.03;2.38;;;-1.10;99.90;;;;;;5110987;28;20497;-77
2021/12/15 03:52:36;;;;;;;12.75;3.95;;;-1.00;99.90;;;;;;5108970;28;20036;-77
2021/12/15 03:55:02;;;;;;;;;;;-0.90;99.90;;;;;;5109832;28;20400;-78
2021/12/15 03:57:27;;;;;;;5.90;2.60;;;-0.80;99.90;;;;;;5090656;28;19960;-78
2021/12/15 03:59:54;;;;;;;;;;;-0.90;99.90;;;;;;5091098;28;20035;-77
2021/12/15 04:02:21;;;;;;;6.97;2.88;;;-0.80;99.90;;;;;;5090877;28;20490;-78
2021/12/15 04:04:48;;;;;;;5.50;2.42;;;-0.90;99.90;;;;;;5091127;28;20062;-78
2021/12/15 04:07:16;;;;;;;10.50;4.13;;;-0.90;99.90;;;;;;5109004;28;20032;-77
2021/12/15 04:09:42;;;;;;;23.88;10.30;;;-1.00;99.90;;;;;;5109085;28;20077;-78
2021/12/15 04:12:09;;;;;;;34.63;14.18;;;-1.00;99.90;;;;;;5090548;28;20047;-77
2021/12/15 04:14:43;;;;;;;24.33;9.65;;;-1.00;99.90;;;;;;5108752;28;20119;-78
2021/12/15 04:17:26;;;;;;;21.35;9.70;;;-1.00;99.90;;;;;;5091125;28;20023;-78
2021/12/15 04:19:57;;;;;;;14.45;7.40;;;-1.00;99.90;;;;;;5109100;28;20114;-77
2021/12/15 04:22:24;;;;;;;15.23;5.55;;;-1.00;99.90;;;;;;5090909;28;20543;-78
2021/12/15 04:24:50;;;;;;;17.50;7.75;;;-0.90;99.90;;;;;;5109360;28;20051;-77
2021/12/15 04:27:17;;;;;;;14.10;5.75;;;-0.80;99.90;;;;;;5090701;28;20031;-77
2021/12/15 04:29:44;;;;;;;12.05;4.93;;;-0.70;99.90;;;;;;5090132;28;20035;-78
2021/12/15 04:32:25;;;;;;;17.00;6.15;;;-0.60;99.90;;;;;;5108800;28;20111;-78
2021/12/15 04:34:51;;;;;;;18.00;7.75;;;-0.50;99.90;;;;;;5090415;28;20031;-77
2021/12/15 04:37:16;;;;;;;;;;;-0.50;99.90;;;;;;5090815;28;20123;-78
2021/12/15 04:39:42;;;;;;;29.10;12.45;;;-0.50;99.90;;;;;;5089827;28;20668;-78
2021/12/15 04:42:08;;;;;;;;;;;-0.50;99.90;;;;;;5109732;28;20032;-78
2021/12/15 04:44:34;;;;;;;26.77;11.93;;;-0.50;99.90;;;;;;5088454;28;19953;-77
2021/12/15 04:47:07;;;;;;;;;;;-0.50;99.90;;;;;;5091527;28;20255;-78
2021/12/15 04:49:38;;;;;;;78.78;40.83;;;-0.50;99.90;;;;;;5090617;28;19952;-78
2021/12/15 04:52:04;;;;;;;86.07;42.78;;;-0.50;99.90;;;;;;5090451;28;20019;-77
2021/12/15 04:54:30;;;;;;;78.05;37.17;;;-0.50;99.90;;;;;;5092129;28;20664;-78
2021/12/15 04:56:57;;;;;;;;;;;-0.50;99.90;;;;;;5090530;28;20047;-78
2021/12/15 04:59:23;;;;;;;45.53;20.20;;;-0.60;99.90;;;;;;5090549;28;20006;-78
2021/12/15 05:01:49;;;;;;;;;;;-0.50;99.90;;;;;;5090552;28;20027;-78
2021/12/15 05:04:15;;;;;;;37.93;16.67;;;-0.50;99.90;;;;;;5111135;28;20002;-78
2021/12/15 05:06:42;;;;;;;37.25;18.80;;;-0.50;99.90;;;;;;5091279;28;20555;-78
2021/12/15 05:09:08;;;;;;;35.67;15.35;;;-0.50;99.90;;;;;;5091060;28;20095;-77
2021/12/15 05:11:34;;;;;;;30.67;14.40;;;-0.60;99.90;;;;;;5090887;28;20094;-78
2021/12/15 05:14:00;;;;;;;;;;;-0.70;99.90;;;;;;5091199;28;20059;-77
2021/12/15 05:16:26;;;;;;;30.23;13.75;;;-0.70;99.90;;;;;;5093678;28;19911;-77
2021/12/15 05:18:52;;;;;;;16.60;6.90;;;-0.70;99.90;;;;;;5091827;28;20475;-78
2021/12/15 05:21:18;;;;;;;;;;;-0.60;99.90;;;;;;5108523;28;20030;-77
2021/12/15 05:23:48;;;;;;;13.35;5.03;;;-0.60;99.90;;;;;;5107877;28;19972;-78
2021/12/15 05:26:13;;;;;;;11.73;4.75;;;-0.50;99.90;;;;;;5107694;28;20103;-78
2021/12/15 05:28:39;;;;;;;;;;;-0.60;99.90;;;;;;5089893;28;20119;-77
2021/12/15 05:31:05;;;;;;;17.17;7.22;;;-0.60;99.90;;;;;;5089472;28;19908;-78
2021/12/15 05:33:30;;;;;;;;;;;-0.70;99.90;;;;;;5089315;28;20031;-78
2021/12/15 05:35:56;;;;;;;17.15;8.23;;;-0.80;99.90;;;;;;5089739;28;20379;-78
2021/12/15 05:38:22;;;;;;;;;;;-0.80;99.90;;;;;;5108562;28;20051;-78
2021/12/15 05:40:48;;;;;;;27.75;11.93;;;-0.80;99.90;;;;;;5089220;28;19907;-78
2021/12/15 05:43:14;;;;;;;30.52;14.40;;;-0.90;99.90;;;;;;5107042;28;20030;-78
2021/12/15 05:45:40;;;;;;;;;;;-0.90;99.90;;;;;;5107034;28;20031;-78
2021/12/15 05:48:08;;;;;;;31.30;13.32;;;-1.00;99.90;;;;;;5089374;28;19908;-77
2021/12/15 05:50:35;;;;;;;26.00;12.02;;;-0.90;99.90;;;;;;5107214;28;20073;-77
2021/12/15 05:53:01;;;;;;;25.38;11.43;;;-0.90;99.90;;;;;;5089422;28;20036;-78
2021/12/15 05:55:28;;;;;;;21.67;11.68;;;-0.80;99.90;;;;;;5106674;28;20032;-78
2021/12/15 05:57:53;;;;;;;23.60;12.50;;;-0.70;99.90;;;;;;5089123;28;20142;-77
2021/12/15 06:00:20;;;;;;;;;;;-0.70;99.90;;;;;;5089102;28;20543;-78
2021/12/15 06:02:46;;;;;;;12.00;5.57;;;-0.70;99.90;;;;;;5089039;28;20513;-78
2021/12/15 06:05:12;;;;;;;;;;;-0.60;99.90;;;;;;5089414;28;20028;-76
2021/12/15 06:07:39;;;;;;;8.52;4.47;;;-0.60;99.90;;;;;;5089723;28;20521;-77
2021/12/15 06:10:08;;;;;;;10.38;5.07;;;-0.60;99.90;;;;;;5089139;28;20399;-77
2021/12/15 06:12:34;;;;;;;11.20;4.90;;;-0.60;99.90;;;;;;5088517;28;20051;-78
2021/12/15 06:15:00;;;;;;;;;;;-0.50;99.90;;;;;;5093341;28;20037;-80
2021/12/15 06:17:26;;;;;;;22.92;10.20;;;-0.60;99.90;;;;;;5093807;28;19907;-79
2021/12/15 06:19:52;;;;;;;;;;;-0.60;99.90;;;;;;5108553;28;20027;-79
2021/12/15 06:22:23;;;;;;;13.35;6.82;;;-0.60;99.90;;;;;;5089221;28;19914;-78
2021/12/15 06:24:50;;;;;;;17.98;9.85;;;-0.60;99.90;;;;;;5090617;28;20124;-78
2021/12/15 06:27:19;;;;;;;24.30;9.98;;;-0.70;99.90;;;;;;5090694;28;20088;-78
2021/12/15 06:29:45;;;;;;;28.35;14.68;;;-0.70;99.90;;;;;;5089767;28;20039;-78
2021/12/15 06:32:11;;;;;;;51.00;23.13;;;-0.60;99.90;;;;;;5090913;28;20503;-79
2021/12/15 06:34:37;;;;;;;110.78;46.25;;;-0.60;99.90;;;;;;5108879;28;20411;-77
2021/12/15 06:37:03;;;;;;;;;;;-0.60;99.90;;;;;;5090921;28;20487;-79
2021/12/15 06:39:30;;;;;;;96.47;41.28;;;-0.60;99.90;;;;;;5108421;28;19923;-78
2021/12/15 06:41:55;;;;;;;83.85;36.13;;;-0.60;99.90;;;;;;5090518;28;20043;-78
2021/12/15 06:44:21;;;;;;;;;;;-0.60;99.90;;;;;;5111384;28;20161;-79
2021/12/15 06:58:26;;;;;;;42.83;17.17;;;-0.50;99.90;;;;;;5108640;28;20088;-78
2021/12/15 07:00:22;;;;;;;49.00;20.35;;;-0.40;99.90;;;;;;5085479;28;20503;-78
2021/12/15 07:02:48;;;;;;;33.53;13.02;;;-0.30;99.90;;;;;;5107693;28;20027;-78
2021/12/15 07:05:14;;;;;;;;;;;-0.20;99.90;;;;;;5090505;28;20034;-78
2021/12/15 07:07:43;;;;;;;35.92;12.77;;;-0.10;99.90;;;;;;5090457;28;20387;-79
2021/12/15 07:10:14;;;;;;;31.38;10.27;;;-0.10;99.90;;;;;;5112748;28;20031;-78
2021/12/15 07:12:40;;;;;;;20.15;9.82;;;0.00;99.90;;;;;;5094920;28;20055;-80
2021/12/15 07:15:06;;;;;;;;;;;0.10;99.90;;;;;;5099602;28;20040;-79
2021/12/15 07:17:32;;;;;;;25.10;11.15;;;0.20;99.90;;;;;;5094156;28;19916;-78
2021/12/15 07:25:08;;;;;;;29.02;13.85;;;0.60;99.90;;;;;;5122501;28;20595;-78
2021/12/15 07:27:34;;;;;;;55.78;25.65;;;0.80;99.90;;;;;;5122920;28;20023;-80
2021/12/15 07:30:00;;;;;;;;;;;0.90;99.90;;;;;;5105868;28;20755;-78
2021/12/15 07:32:26;;;;;;;33.80;15.95;;;1.10;99.90;;;;;;5112714;28;19962;-78
2021/12/15 07:34:52;;;;;;;20.65;10.07;;;1.20;99.90;;;;;;5096597;28;20039;-78
2021/12/15 07:37:17;;;;;;;;;;;1.40;99.90;;;;;;5125680;28;20483;-79
2021/12/15 07:39:44;;;;;;;9.10;3.35;;;1.60;99.90;;;;;;5106982;28;19925;-77
2021/12/15 07:42:12;;;;;;;6.32;2.88;;;1.90;99.90;;;;;;5108591;28;20023;-80
2021/12/15 07:44:38;;;;;;;8.13;3.85;;;2.20;99.90;;;;;;5107398;28;20241;-80
2021/12/15 07:47:06;;;;;;;10.40;6.05;;;2.50;99.90;;;;;;5127039;28;20047;-80
2021/12/15 07:49:32;;;;;;;16.05;9.18;;;2.80;99.90;;;;;;5106829;28;20092;-79
2021/12/15 07:52:04;;;;;;;20.05;8.93;;;3.00;99.90;;;;;;5106705;28;20465;-79
2021/12/15 07:54:35;;;;;;;25.83;15.27;;;3.20;99.90;;;;;;5104937;28;20032;-79
2021/12/15 07:57:04;;;;;;;27.02;13.75;;;3.30;99.90;;;;;;5105398;28;20061;-79
2021/12/15 07:59:30;;;;;;;54.38;19.25;;;3.40;99.90;;;;;;5124002;28;20020;-79
2021/12/15 08:01:56;;;;;;;;;;;3.60;99.90;;;;;;5123997;28;20031;-80
2021/12/15 08:04:21;;;;;;;71.70;32.10;;;3.80;99.90;;;;;;5106116;28;19903;-79
2021/12/15 08:06:47;;;;;;;83.25;38.80;;;3.90;99.90;;;;;;5106973;28;20027;-79
2021/12/15 08:09:14;;;;;;;78.88;35.78;;;4.20;99.90;;;;;;5108955;28;20063;-80
2021/12/15 08:11:40;;;;;;;64.05;28.48;;;4.40;99.90;;;;;;5111387;28;20046;-81
2021/12/15 08:14:06;;;;;;;39.97;19.95;;;4.60;99.90;;;;;;5105320;28;20041;-79
2021/12/15 08:16:32;;;;;;;40.20;20.45;;;4.90;99.90;;;;;;5105788;28;20019;-78
2021/12/15 08:18:58;;;;;;;;;;;5.10;99.90;;;;;;5124461;28;20020;-78
2021/12/15 08:21:24;;;;;;;22.02;9.82;;;5.40;99.90;;;;;;5117896;28;19914;-77
2021/12/15 08:23:49;;;;;;;;;;;5.70;99.90;;;;;;5118592;28;20042;-78
2021/12/15 08:26:15;;;;;;;18.55;8.23;;;6.00;99.90;;;;;;5117001;28;19914;-78
2021/12/15 08:28:40;;;;;;;;;;;6.20;99.90;;;;;;5099468;28;20028;-78
2021/12/15 08:31:07;;;;;;;14.93;7.57;;;6.20;98.40;;;;;;5103039;28;19925;-78
2021/12/15 08:33:32;;;;;;;;;;;6.20;99.90;;;;;;5118999;28;20028;-78
2021/12/15 08:36:01;;;;;;;22.90;11.95;;;6.20;99.90;;;;;;5114261;28;19930;-77
2021/12/15 08:38:30;;;;;;;31.48;18.10;;;6.20;99.90;;;;;;5112504;28;20643;-80
2021/12/15 08:40:56;;;;;;;37.20;22.42;;;6.20;99.90;;;;;;5116495;28;20018;-78
2021/12/15 08:43:23;;;;;;;41.47;21.13;;;6.20;99.90;;;;;;5098135;28;20083;-79
2021/12/15 08:45:55;;;;;;;32.63;18.23;;;6.10;98.90;;;;;;5098117;28;20119;-78
2021/12/15 08:48:22;;;;;;;52.92;26.88;;;6.00;98.00;;;;;;5098734;28;20118;-78
2021/12/15 08:50:47;;;;;;;56.63;29.20;;;5.90;99.20;;;;;;5116435;28;20053;-79
2021/12/15 08:53:13;;;;;;;;;;;5.90;99.90;;;;;;5117208;28;20016;-79
2021/12/15 08:55:46;;;;;;;42.00;20.83;;;5.90;99.90;;;;;;5097562;28;19973;-78
2021/12/15 08:58:18;;;;;;;29.15;15.05;;;5.90;99.90;;;;;;5115900;28;20016;-79
2021/12/15 09:00:45;;;;;;;25.92;13.63;;;5.90;99.90;;;;;;5130655;27;20041;-78
2021/12/15 09:03:13;;;;;;;26.42;13.25;;;5.90;99.90;;;;;;5099493;28;20085;-79
2021/12/15 09:05:40;;;;;;;16.15;8.80;;;5.90;99.90;;;;;;5096756;28;20024;-77
2021/12/15 09:08:07;;;;;;;20.73;9.90;;;6.00;99.90;;;;;;5092702;28;20027;-78
2021/12/15 09:10:35;;;;;;;28.02;16.33;;;6.00;99.90;;;;;;5092924;28;20139;-78
2021/12/15 09:13:03;;;;;;;34.10;19.33;;;6.10;99.90;;;;;;5091707;28;20059;-78
2021/12/15 09:15:30;;;;;;;49.35;27.65;;;6.20;99.90;;;;;;5109758;28;20078;-78
2021/12/15 09:17:56;;;;;;;66.38;39.58;;;6.20;99.90;;;;;;5109701;28;20077;-79
2021/12/15 09:20:27;;;;;;;57.70;35.72;;;6.20;99.90;;;;;;5092421;28;20112;-78
2021/12/15 09:22:53;;;;;;;43.88;26.55;;;6.20;99.90;;;;;;5090547;28;20027;-78
2021/12/15 09:25:19;;;;;;;50.60;28.83;;;6.20;99.90;;;;;;5090569;28;20096;-79
2021/12/15 09:27:45;;;;;;;;;;;6.20;99.90;;;;;;5091269;28;20472;-78
2021/12/15 09:30:19;;;;;;;78.68;44.10;;;6.20;99.90;;;;;;5108503;28;20380;-78
2021/12/15 09:32:46;;;;;;;68.78;39.78;;;6.20;99.90;;;;;;5090924;28;20027;-77
2021/12/15 09:35:14;;;;;;;72.50;42.83;;;6.10;99.90;;;;;;5109454;28;20079;-78
2021/12/15 09:37:40;;;;;;;66.40;38.33;;;6.10;99.90;;;;;;5109205;28;20092;-77
2021/12/15 09:40:07;;;;;;;;;;;6.20;99.90;;;;;;5091868;28;20031;-79
2021/12/15 09:42:37;;;;;;;74.03;42.80;;;6.10;99.90;;;;;;5112528;28;19911;-79
2021/12/15 09:45:27;;;;;;;83.15;45.78;;;6.10;99.90;;;;;;5098287;28;20098;-78
2021/12/15 10:18:02;;;;;;;95.25;52.50;;;6.00;99.90;;;;;;5117754;28;20039;-79
2021/12/15 10:20:29;;;;;;;85.25;44.30;;;6.20;99.90;;;;;;5127849;28;20020;-79
2021/12/15 10:23:00;;;;;;;109.30;63.13;;;6.10;99.90;;;;;;5104045;28;20035;-79
2021/12/15 10:25:43;;;;;;;187.60;128.07;;;6.20;99.90;;;;;;5117567;28;20050;-79
2021/12/15 10:28:10;;;;;;;102.25;59.78;;;6.20;99.90;;;;;;5118964;28;20042;-78
2021/12/15 10:30:50;;;;;;;83.20;49.05;;;6.20;99.90;;;;;;5100450;28;20024;-78
2021/12/15 10:33:21;;;;;;;60.00;37.42;;;6.20;99.90;;;;;;5100439;28;20028;-79
2021/12/15 10:36:13;;;;;;;95.03;57.13;;;6.20;99.90;;;;;;5099908;28;20028;-80
2021/12/15 10:38:48;;;;;;;56.47;32.92;;;6.30;99.90;;;;;;5100717;28;20034;-77
2021/12/15 10:41:25;;;;;;;45.20;25.02;;;6.30;99.90;;;;;;5100725;28;20035;-78
2021/12/15 10:43:53;;;;;;;56.00;31.85;;;6.30;99.90;;;;;;5123482;28;20444;-79
2021/12/15 10:46:23;;;;;;;51.33;27.77;;;6.30;99.90;;;;;;5106433;28;20024;-79
2021/12/15 10:48:59;;;;;;;33.05;18.73;;;6.40;99.90;;;;;;5104598;28;20026;-79
2021/12/15 10:51:34;;;;;;;29.30;17.33;;;6.50;99.90;;;;;;5104715;28;20027;-78
2021/12/15 10:54:08;;;;;;;23.30;14.10;;;6.40;99.90;;;;;;5121041;28;20047;-78
2021/12/15 10:56:38;;;;;;;24.02;12.88;;;6.50;99.90;;;;;;5104693;28;20051;-78
2021/12/15 10:59:07;;;;;;;27.13;11.98;;;6.50;99.90;;;;;;5105624;28;20095;-78
2021/12/15 11:01:39;;;;;;;20.05;10.98;;;6.60;99.90;;;;;;5098986;28;20104;-78
2021/12/15 11:04:28;;;;;;;19.50;10.90;;;6.50;99.90;;;;;;5097346;28;20035;-78
2021/12/15 11:07:26;;;;;;;16.23;8.25;;;6.50;99.90;;;;;;5097498;28;20696;-79
2021/12/15 11:10:12;;;;;;;12.25;7.72;;;6.50;99.90;;;;;;5070863;28;20048;-77
2021/12/15 11:12:59;;;;;;;14.57;7.57;;;6.50;99.90;;;;;;5096217;28;20032;-78
2021/12/15 11:15:49;;;;;;;11.13;6.90;;;6.50;99.90;;;;;;5098990;28;20084;-77
2021/12/15 11:18:24;;;;;;;9.75;6.00;;;6.50;99.90;;;;;;5118841;28;20023;-79
2021/12/15 11:21:08;;;;;;;15.45;6.20;;;6.50;99.90;;;;;;5101329;28;20040;-78
2021/12/15 11:23:35;;;;;;;9.75;5.38;;;6.50;99.90;;;;;;5120143;28;20024;-79
2021/12/15 11:26:02;;;;;;;11.70;5.70;;;6.60;99.90;;;;;;5097142;28;20572;-79
2021/12/15 11:28:54;;;;;;;11.73;5.45;;;6.70;99.90;;;;;;5118312;28;20035;-80
2021/12/15 11:31:23;;;;;;;8.18;4.63;;;6.70;99.90;;;;;;5112222;28;20040;-78
2021/12/15 11:33:56;;;;;;;8.48;4.43;;;6.80;99.90;;;;;;5115743;28;20026;-78
2021/12/15 11:36:31;;;;;;;8.00;4.22;;;6.90;99.90;;;;;;5095604;28;20272;-77
2021/12/15 11:39:05;;;;;;;8.88;4.53;;;6.90;99.90;;;;;;5094502;28;20023;-78
2021/12/15 11:41:31;;;;;;;7.45;4.10;;;6.90;99.90;;;;;;5094781;28;20036;-78
2021/12/15 11:44:00;;;;;;;;;;;6.90;99.90;;;;;;5095296;28;20034;-78
2021/12/15 11:46:31;;;;;;;12.63;7.60;;;6.90;99.90;;;;;;5113429;28;19957;-79
2021/12/15 11:49:06;;;;;;;12.70;7.75;;;6.80;99.90;;;;;;5094554;28;20032;-77
2021/12/15 11:51:41;;;;;;;10.47;5.50;;;6.70;99.90;;;;;;5094969;28;20015;-77
2021/12/15 11:54:37;;;;;;;8.07;4.18;;;6.70;99.90;;;;;;5093195;28;20038;-77
2021/12/15 11:57:16;;;;;;;7.60;3.95;;;6.70;99.90;;;;;;5093687;28;20039;-78
2021/12/15 11:59:49;;;;;;;7.80;4.35;;;6.70;99.90;;;;;;5097048;28;20514;-77
2021/12/15 12:02:14;;;;;;;7.20;3.80;;;6.70;99.90;;;;;;5102996;28;20027;-78
2021/12/15 12:04:48;;;;;;;;;;;6.70;99.90;;;;;;5114435;28;20499;-77
2021/12/15 12:07:25;;;;;;;8.20;4.07;;;6.70;99.90;;;;;;5094060;28;19937;-78
2021/12/15 12:09:56;;;;;;;7.97;4.40;;;6.60;99.90;;;;;;5093206;28;20024;-77
2021/12/15 12:12:28;;;;;;;9.50;4.95;;;6.60;99.90;;;;;;5112913;28;20490;-78
2021/12/15 12:14:56;;;;;;;8.57;4.38;;;6.60;99.90;;;;;;5093932;28;20039;-78
2021/12/15 12:17:32;;;;;;;8.18;4.72;;;6.60;99.90;;;;;;5093547;28;20288;-77
2021/12/15 12:20:16;;;;;;;8.50;4.70;;;6.60;99.90;;;;;;5091947;28;20028;-76
2021/12/15 12:22:47;;;;;;;14.23;6.10;;;6.60;99.90;;;;;;5091699;28;20035;-76
2021/12/15 12:25:24;;;;;;;14.18;6.35;;;6.70;99.90;;;;;;5093449;28;20024;-78
2021/12/15 12:27:51;;;;;;;15.02;8.05;;;6.70;99.90;;;;;;5109484;28;20107;-77
2021/12/15 12:30:24;;;;;;;20.00;11.00;;;6.70;99.90;;;;;;5097210;28;20496;-77
2021/12/15 12:32:52;;;;;;;26.02;10.77;;;6.60;99.90;;;;;;5111564;28;20031;-78
2021/12/15 12:35:22;;;;;;;23.48;10.82;;;6.60;99.90;;;;;;5093506;28;20111;-77
2021/12/15 12:37:55;;;;;;;22.42;10.93;;;6.40;99.90;;;;;;5114430;28;20028;-77
2021/12/15 12:40:25;;;;;;;25.88;12.07;;;6.50;99.90;;;;;;5101979;28;20084;-79
2021/12/15 12:42:50;;;;;;;23.77;12.15;;;6.50;99.90;;;;;;5095863;28;20032;-76
2021/12/15 12:45:34;;;;;;;;;;;6.50;99.90;;;;;;5110408;28;20024;-76
2021/12/15 12:59:48;;;;;;;21.17;12.50;;;6.30;99.90;;;;;;5115128;28;20413;-77
2021/12/15 13:02:47;;;;;;;23.55;11.32;;;6.20;99.90;;;;;;5096473;28;20062;-77
2021/12/15 13:05:37;;;;;;;17.75;10.70;;;6.20;99.90;;;;;;5112627;28;20138;-78
2021/12/15 13:08:15;;;;;;;15.38;9.65;;;6.20;99.90;;;;;;5113709;28;20084;-79
2021/12/15 13:10:49;;;;;;;20.23;11.15;;;6.10;99.90;;;;;;5095741;28;20027;-77
2021/12/15 13:13:19;;;;;;;23.58;13.98;;;6.10;99.90;;;;;;5094290;28;20043;-76
2021/12/15 13:16:01;;;;;;;29.42;15.75;;;6.10;99.90;;;;;;5112568;28;20043;-78
2021/12/15 13:18:40;;;;;;;34.90;18.70;;;6.10;99.90;;;;;;5112464;28;20020;-77
2021/12/15 13:21:08;;;;;;;33.22;16.63;;;6.00;99.90;;;;;;5111997;28;20127;-76
2021/12/15 13:23:54;;;;;;;32.65;18.20;;;6.10;99.90;;;;;;5093187;28;20020;-77
2021/12/15 13:29:28;;;;;;;37.95;17.30;;;6.10;99.90;;;;;;5112741;28;20034;-76
2021/12/15 13:31:59;;;;;;;;;;;6.10;99.90;;;;;;5093765;28;20118;-76
2021/12/15 13:34:54;;;;;;;31.88;18.35;;;6.10;99.90;;;;;;5111255;28;19937;-76
2021/12/15 13:37:52;;;;;;;28.95;15.90;;;6.10;99.90;;;;;;5075824;28;20036;-79
2021/12/15 13:40:59;;;;;;;29.27;15.82;;;6.10;99.90;;;;;;5092229;28;20490;-75
2021/12/15 13:43:42;;;;;;;29.92;14.38;;;6.00;99.90;;;;;;5112089;28;20019;-76
2021/12/15 13:46:23;;;;;;;29.15;17.63;;;6.00;99.90;;;;;;5093716;28;20400;-75
2021/12/15 13:49:06;;;;;;;26.25;16.60;;;5.90;99.90;;;;;;5092115;28;20499;-77
2021/12/15 13:51:57;;;;;;;23.40;14.48;;;5.90;99.90;;;;;;5093112;28;20804;-78
2021/12/15 13:54:37;;;;;;;21.83;11.63;;;5.80;99.90;;;;;;5108763;28;20085;-78
2021/12/15 13:57:12;;;;;;;19.13;11.30;;;5.80;99.90;;;;;;5109036;28;20411;-77
2021/12/15 13:59:53;;;;;;;17.35;9.90;;;5.70;99.90;;;;;;5109935;28;20028;-77
2021/12/15 14:02:30;;;;;;;21.38;11.43;;;5.70;99.90;;;;;;5109322;28;20031;-78
2021/12/15 14:04:56;;;;;;;19.77;9.93;;;5.60;99.90;;;;;;5110055;28;20023;-78
2021/12/15 14:07:27;;;;;;;;;;;5.60;99.90;;;;;;5110378;28;20050;-77
2021/12/15 14:09:54;;;;;;;20.83;11.02;;;5.60;99.90;;;;;;5108754;28;19908;-78
2021/12/15 14:12:44;;;;;;;20.98;11.60;;;5.50;99.90;;;;;;5091262;28;20062;-79
2021/12/15 14:15:15;;;;;;;21.63;10.38;;;5.50;99.90;;;;;;5091595;28;20043;-78
2021/12/15 14:17:41;;;;;;;23.05;13.15;;;5.40;99.90;;;;;;5096350;28;20070;-78
2021/12/15 14:20:15;;;;;;;;;;;5.30;99.90;;;;;;5100464;28;20407;-79
2021/12/15 14:22:41;;;;;;;24.70;14.07;;;5.30;99.90;;;;;;5094252;28;19946;-79
2021/12/15 14:25:08;;;;;;;;;;;5.20;99.90;;;;;;5097131;28;20019;-78
2021/12/15 14:27:34;;;;;;;31.38;16.02;;;5.10;99.90;;;;;;5115252;28;19907;-79
2021/12/15 14:30:00;;;;;;;;;;;5.00;99.90;;;;;;5114593;28;20035;-78
2021/12/15 14:32:27;;;;;;;36.08;19.23;;;4.80;99.90;;;;;;5095889;28;19914;-79
2021/12/15 14:34:53;;;;;;;28.73;16.15;;;4.80;99.90;;;;;;5114890;28;20050;-78
2021/12/15 14:37:20;;;;;;;29.70;15.52;;;4.70;99.90;;;;;;5114798;28;20040;-79
2021/12/15 14:39:50;;;;;;;39.15;21.40;;;4.70;99.90;;;;;;5113079;28;20391;-78